Time;durP1;ratioP1;P1;durP2;ratioP2;P2;SDS_P1;SDS_P2;PMS_P1;PMS_P2;Temp;Humidity;BMP_temperature;BMP_pressure;BME280_temperature;BME280_humidity;BME280_pressure;Samples;Min_cycle;Max_cycle;Signal;HPM_P1;HPM_P2
2022/11/19 00:01:41;;;;;;;2.08;0.90;;;;;;;;;;5092881;28;20045;-60
2022/11/19 00:04:09;;;;;;;0.68;0.50;;;;;;;;;;5093409;28;20024;-60
2022/11/19 00:06:42;;;;;;;6.22;0.50;;;;;;;;;;5072450;28;20758;-59
2022/11/19 00:09:18;;;;;;;0.63;0.50;;;;;;;;;;5068050;28;20024;-61
2022/11/19 00:14:33;;;;;;;1.80;0.55;;;;;;;;;;5067829;28;20047;-60
2022/11/19 00:17:04;;;;;;;1.77;0.70;;;;;;;;;;5072377;28;20059;-60
2022/11/19 00:19:35;;;;;;;9.07;1.87;;;;;;;;;;5073162;28;20107;-59
2022/11/19 00:22:10;;;;;;;1.03;0.60;;;;;;;;;;5072639;28;20189;-59
2022/11/19 00:24:40;;;;;;;2.17;0.90;;;;;;;;;;5072727;28;20028;-59
2022/11/19 00:27:23;;;;;;;2.20;0.97;;;;;;;;;;5090028;28;20044;-59
2022/11/19 00:29:56;;;;;;;0.30;0.30;;;;;;;;;;5087753;28;20397;-59
2022/11/19 00:32:30;;;;;;;1.20;0.43;;;;;;;;;;5087561;28;20085;-59
2022/11/19 00:35:01;;;;;;;0.32;0.28;;;;;;;;;;5087528;28;20036;-60
2022/11/19 00:37:36;;;;;;;0.60;0.40;;;;;;;;;;5083279;28;20103;-59
2022/11/19 00:40:12;;;;;;;1.63;0.98;;;;;;;;;;5072089;28;20031;-59
2022/11/19 00:43:45;;;;;;;1.20;0.53;;;;;;;;;;5086632;28;20089;-59
2022/11/19 00:45:38;;;;;;;0.80;0.57;;;;;;;;;;5091962;28;20115;-59
2022/11/19 00:48:09;;;;;;;1.33;0.67;;;;;;;;;;5092195;28;20107;-59
2022/11/19 00:50:46;;;;;;;0.87;0.60;;;;;;;;;;5089427;28;20020;-59
2022/11/19 00:53:23;;;;;;;7.20;1.30;;;;;;;;;;5086507;28;20056;-59
2022/11/19 00:55:57;;;;;;;1.20;0.60;;;;;;;;;;5087130;28;20024;-59
2022/11/19 00:58:28;;;;;;;1.53;0.80;;;;;;;;;;5087255;28;20383;-60
2022/11/19 01:00:59;;;;;;;1.20;0.80;;;;;;;;;;5090651;28;20275;-59
2022/11/19 01:03:30;;;;;;;1.20;0.77;;;;;;;;;;5092366;28;20024;-59
2022/11/19 01:06:01;;;;;;;1.37;0.93;;;;;;;;;;5090336;28;20032;-61
2022/11/19 01:08:34;;;;;;;0.80;0.60;;;;;;;;;;5092112;28;20024;-59
2022/11/19 01:11:18;;;;;;;0.50;0.40;;;;;;;;;;5092322;28;20048;-59
2022/11/19 01:13:50;;;;;;;10.13;0.90;;;;;;;;;;5087282;28;20035;-59
2022/11/19 01:16:25;;;;;;;7.37;1.07;;;;;;;;;;5073534;28;20098;-59
2022/11/19 01:18:56;;;;;;;1.13;0.67;;;;;;;;;;5066785;28;20017;-59
2022/11/19 01:21:28;;;;;;;1.23;0.77;;;;;;;;;;5066832;28;20047;-58
2022/11/19 01:24:05;;;;;;;0.30;0.17;;;;;;;;;;5073622;28;20456;-59
2022/11/19 01:26:44;;;;;;;1.40;0.60;;;;;;;;;;5085252;28;20035;-59
2022/11/19 01:29:15;;;;;;;2.23;0.50;;;;;;;;;;5081199;28;20111;-58
2022/11/19 01:31:46;;;;;;;1.40;0.60;;;;;;;;;;5072442;28;20047;-59
2022/11/19 01:34:19;;;;;;;1.03;0.60;;;;;;;;;;5070730;28;20532;-59
2022/11/19 01:36:50;;;;;;;1.27;0.80;;;;;;;;;;5071653;28;20427;-59
2022/11/19 01:39:24;;;;;;;0.67;0.40;;;;;;;;;;5083800;28;20082;-59
2022/11/19 01:41:57;;;;;;;1.27;0.60;;;;;;;;;;5080992;28;20028;-58
2022/11/19 01:44:44;;;;;;;4.33;0.63;;;;;;;;;;5074758;28;20372;-59
2022/11/19 01:47:21;;;;;;;0.53;0.53;;;;;;;;;;5071879;28;20031;-59
2022/11/19 01:49:50;;;;;;;0.73;0.50;;;;;;;;;;5071833;28;20475;-60
2022/11/19 01:52:17;;;;;;;1.17;0.80;;;;;;;;;;5088082;28;20021;-59
2022/11/19 01:54:45;;;;;;;1.23;0.63;;;;;;;;;;5095179;28;20103;-59
2022/11/19 01:57:16;;;;;;;0.70;0.70;;;;;;;;;;5093242;28;20031;-59
2022/11/19 01:59:50;;;;;;;9.23;2.20;;;;;;;;;;5090090;28;20044;-59
2022/11/19 02:02:21;;;;;;;1.83;0.88;;;;;;;;;;5088145;28;20166;-59
2022/11/19 02:04:56;;;;;;;2.00;0.97;;;;;;;;;;5089389;28;20479;-59
2022/11/19 02:07:31;;;;;;;3.15;1.60;;;;;;;;;;5090959;28;20103;-58
2022/11/19 02:09:59;;;;;;;;;;;;;;;;;;5095532;28;20394;-59
2022/11/19 02:12:36;;;;;;;2.70;1.67;;;;;;;;;;5095334;28;19966;-58
2022/11/19 02:15:19;;;;;;;2.20;1.47;;;;;;;;;;5082570;28;20036;-59
2022/11/19 02:17:50;;;;;;;2.97;1.43;;;;;;;;;;5074792;28;20026;-58
2022/11/19 02:20:27;;;;;;;2.67;0.97;;;;;;;;;;5071008;28;20043;-60
2022/11/19 02:23:03;;;;;;;21.57;1.40;;;;;;;;;;5069817;28;20141;-59
2022/11/19 02:25:37;;;;;;;0.97;0.63;;;;;;;;;;5073549;28;20051;-58
2022/11/19 02:28:25;;;;;;;3.33;0.80;;;;;;;;;;5089878;28;20054;-58
2022/11/19 02:30:59;;;;;;;1.10;0.60;;;;;;;;;;5093782;28;20024;-58
2022/11/19 02:33:59;;;;;;;0.65;0.55;;;;;;;;;;5094603;28;20024;-59
2022/11/19 02:36:36;;;;;;;0.87;0.70;;;;;;;;;;5092851;28;20091;-59
2022/11/19 02:39:15;;;;;;;0.97;0.50;;;;;;;;;;5090733;28;20022;-61
2022/11/19 02:41:53;;;;;;;2.03;0.93;;;;;;;;;;5079162;28;20544;-59
2022/11/19 02:47:21;;;;;;;1.05;0.70;;;;;;;;;;5089145;28;20113;-58
2022/11/19 02:50:05;;;;;;;1.20;0.90;;;;;;;;;;5075795;28;20091;-58
2022/11/19 02:52:35;;;;;;;5.63;1.40;;;;;;;;;;5072360;28;20024;-58
2022/11/19 02:55:05;;;;;;;1.50;0.83;;;;;;;;;;5074144;28;20044;-58
2022/11/19 02:57:38;;;;;;;2.73;1.10;;;;;;;;;;5073497;28;20032;-58
2022/11/19 03:06:14;;;;;;;1.90;1.17;;;;;;;;;;4987138;28;20061;-59
2022/11/19 03:08:48;;;;;;;1.50;1.07;;;;;;;;;;5060225;28;20032;-58
2022/11/19 03:11:25;;;;;;;0.57;0.45;;;;;;;;;;5070558;28;20471;-58
2022/11/19 03:16:59;;;;;;;1.50;0.90;;;;;;;;;;5088543;28;20449;-58
2022/11/19 03:19:46;;;;;;;4.17;0.60;;;;;;;;;;5090495;28;20030;-58
2022/11/19 03:22:29;;;;;;;0.60;0.50;;;;;;;;;;5094109;28;20466;-58
2022/11/19 03:24:55;;;;;;;1.83;0.87;;;;;;;;;;5078525;28;20070;-57
2022/11/19 03:27:27;;;;;;;1.10;0.77;;;;;;;;;;5086939;28;20065;-59
2022/11/19 03:29:56;;;;;;;2.37;1.40;;;;;;;;;;5079581;28;20380;-59
2022/11/19 03:32:26;;;;;;;1.73;1.03;;;;;;;;;;5088837;28;20150;-58
2022/11/19 03:34:56;;;;;;;16.20;1.13;;;;;;;;;;5088385;28;20038;-59
2022/11/19 03:37:23;;;;;;;2.57;1.53;;;;;;;;;;5092502;28;20023;-58
2022/11/19 03:39:51;;;;;;;1.53;0.77;;;;;;;;;;5093461;28;20070;-57
2022/11/19 03:42:18;;;;;;;2.10;1.40;;;;;;;;;;5081594;28;20029;-59
2022/11/19 03:44:50;;;;;;;1.90;1.37;;;;;;;;;;5074404;28;20095;-59
2022/11/19 03:47:19;;;;;;;1.10;0.90;;;;;;;;;;5073210;28;20028;-58
2022/11/19 03:49:48;;;;;;;2.70;1.43;;;;;;;;;;5068353;28;20024;-60
2022/11/19 03:52:17;;;;;;;7.73;1.67;;;;;;;;;;5067981;28;20107;-59
2022/11/19 03:54:44;;;;;;;10.77;6.70;;;;;;;;;;5067972;28;20044;-59
2022/11/19 03:57:12;;;;;;;6.97;4.60;;;;;;;;;;5067816;28;20552;-58
2022/11/19 03:59:39;;;;;;;6.73;4.30;;;;;;;;;;5071977;28;20408;-58
2022/11/19 04:02:09;;;;;;;13.90;6.63;;;;;;;;;;5073095;28;20024;-59
2022/11/19 04:04:37;;;;;;;12.33;5.70;;;;;;;;;;5086110;28;20112;-59
2022/11/19 04:07:04;;;;;;;8.67;6.60;;;;;;;;;;5093161;28;20032;-58
2022/11/19 04:09:31;;;;;;;9.03;5.03;;;;;;;;;;5093262;28;20020;-59
2022/11/19 04:11:58;;;;;;;10.17;6.30;;;;;;;;;;5088544;28;20039;-59
2022/11/19 04:14:24;;;;;;;9.83;6.93;;;;;;;;;;5087423;28;20103;-57
2022/11/19 04:16:51;;;;;;;9.13;5.27;;;;;;;;;;5070392;28;20039;-59
2022/11/19 04:19:18;;;;;;;22.30;5.70;;;;;;;;;;5067606;28;20056;-58
2022/11/19 04:21:44;;;;;;;5.30;4.00;;;;;;;;;;5073842;28;20032;-58
2022/11/19 04:24:11;;;;;;;5.47;4.13;;;;;;;;;;5084470;28;20056;-58
2022/11/19 04:26:38;;;;;;;6.73;5.03;;;;;;;;;;5086258;28;20020;-57
2022/11/19 04:29:05;;;;;;;8.23;4.50;;;;;;;;;;5092722;28;20434;-58
2022/11/19 04:31:32;;;;;;;6.10;5.10;;;;;;;;;;5092885;28;20016;-58
2022/11/19 04:33:58;;;;;;;6.27;3.97;;;;;;;;;;5087647;28;20077;-58
2022/11/19 04:36:25;;;;;;;7.20;4.27;;;;;;;;;;5087692;28;20031;-58
2022/11/19 04:38:52;;;;;;;7.23;3.67;;;;;;;;;;5087518;28;20020;-58
2022/11/19 04:41:18;;;;;;;5.47;3.33;;;;;;;;;;5078327;28;20077;-59
2022/11/19 04:43:45;;;;;;;5.60;3.93;;;;;;;;;;5089221;28;20039;-58
2022/11/19 04:46:11;;;;;;;13.20;5.87;;;;;;;;;;5091817;28;20051;-59
2022/11/19 04:48:38;;;;;;;11.43;4.27;;;;;;;;;;5092544;28;20086;-59
2022/11/19 04:51:05;;;;;;;3.33;2.20;;;;;;;;;;5092279;28;20031;-58
2022/11/19 04:53:31;;;;;;;3.27;2.10;;;;;;;;;;5092456;28;20027;-58
2022/11/19 04:55:58;;;;;;;4.90;4.07;;;;;;;;;;5088612;28;20042;-58
2022/11/19 04:58:25;;;;;;;2.90;2.20;;;;;;;;;;5085558;28;20103;-58
2022/11/19 05:00:51;;;;;;;5.93;1.67;;;;;;;;;;5086420;28;20032;-58
2022/11/19 05:03:18;;;;;;;3.40;2.63;;;;;;;;;;5087062;28;20031;-58
2022/11/19 05:05:45;;;;;;;6.53;4.07;;;;;;;;;;5089961;28;20051;-58
2022/11/19 05:08:11;;;;;;;4.70;3.13;;;;;;;;;;5092158;28;20020;-58
2022/11/19 05:10:38;;;;;;;3.30;2.33;;;;;;;;;;5092425;28;20478;-58
2022/11/19 05:13:05;;;;;;;3.20;2.60;;;;;;;;;;5092146;28;20078;-58
2022/11/19 05:15:31;;;;;;;4.07;3.27;;;;;;;;;;5085867;28;20028;-58
2022/11/19 05:17:58;;;;;;;3.90;2.17;;;;;;;;;;5070192;28;20131;-57
2022/11/19 05:20:25;;;;;;;3.43;2.40;;;;;;;;;;5066733;28;20021;-58
2022/11/19 05:22:51;;;;;;;6.90;3.60;;;;;;;;;;5066820;28;20463;-58
2022/11/19 05:25:18;;;;;;;4.53;2.50;;;;;;;;;;5069054;28;20475;-58
2022/11/19 05:27:45;;;;;;;3.17;1.87;;;;;;;;;;5091750;28;20047;-57
2022/11/19 05:30:12;;;;;;;3.17;2.23;;;;;;;;;;5096265;28;20062;-58
2022/11/19 05:32:39;;;;;;;3.07;2.20;;;;;;;;;;5095964;28;20023;-59
2022/11/19 05:35:05;;;;;;;3.53;2.17;;;;;;;;;;5095885;28;20044;-59
2022/11/19 05:37:32;;;;;;;5.83;2.10;;;;;;;;;;5095672;28;20054;-58
2022/11/19 05:39:59;;;;;;;5.13;2.13;;;;;;;;;;5093540;28;20052;-57
2022/11/19 05:42:25;;;;;;;3.50;1.40;;;;;;;;;;5077731;28;20024;-57
2022/11/19 05:44:52;;;;;;;2.27;1.90;;;;;;;;;;5070518;28;20078;-58
2022/11/19 05:47:19;;;;;;;2.80;2.03;;;;;;;;;;5070138;28;20379;-58
2022/11/19 05:49:45;;;;;;;2.77;1.77;;;;;;;;;;5072211;28;20206;-58
2022/11/19 05:52:12;;;;;;;13.57;2.80;;;;;;;;;;5075399;28;20037;-58
2022/11/19 05:54:39;;;;;;;5.00;2.60;;;;;;;;;;5084693;28;20022;-58
2022/11/19 05:57:05;;;;;;;5.40;2.80;;;;;;;;;;5095897;28;20024;-58
2022/11/19 05:59:32;;;;;;;5.80;2.20;;;;;;;;;;5095528;28;20028;-57
2022/11/19 06:01:59;;;;;;;3.07;1.70;;;;;;;;;;5093291;28;20064;-58
2022/11/19 06:04:26;;;;;;;1.97;1.13;;;;;;;;;;5090018;28;20016;-58
2022/11/19 06:06:52;;;;;;;1.87;1.37;;;;;;;;;;5090246;28;20051;-58
2022/11/19 06:09:19;;;;;;;2.77;1.10;;;;;;;;;;5090410;28;20035;-58
2022/11/19 06:11:51;;;;;;;1.50;1.13;;;;;;;;;;5091456;28;20016;-58
2022/11/19 06:14:23;;;;;;;19.50;1.07;;;;;;;;;;5075348;28;20125;-58
2022/11/19 06:16:56;;;;;;;2.83;1.30;;;;;;;;;;5074815;28;20071;-58
2022/11/19 06:19:23;;;;;;;1.30;0.93;;;;;;;;;;5075024;28;20033;-58
2022/11/19 06:21:51;;;;;;;1.23;1.03;;;;;;;;;;5075053;28;20027;-57
2022/11/19 06:24:18;;;;;;;2.83;1.47;;;;;;;;;;5072635;28;20024;-57
2022/11/19 06:26:44;;;;;;;1.97;1.27;;;;;;;;;;5084134;28;20020;-58
2022/11/19 06:29:14;;;;;;;5.73;1.87;;;;;;;;;;5088757;28;20032;-58
2022/11/19 06:31:42;;;;;;;2.90;1.80;;;;;;;;;;5072643;28;20386;-59
2022/11/19 06:34:09;;;;;;;2.50;1.53;;;;;;;;;;5070470;28;20572;-59
2022/11/19 06:36:36;;;;;;;3.87;1.63;;;;;;;;;;5074563;28;20114;-61
2022/11/19 06:39:03;;;;;;;1.63;1.30;;;;;;;;;;5074459;28;20035;-59
2022/11/19 06:41:29;;;;;;;1.83;1.13;;;;;;;;;;5079536;28;20019;-61
2022/11/19 06:43:56;;;;;;;1.17;0.93;;;;;;;;;;5089691;28;20041;-58
2022/11/19 06:46:23;;;;;;;1.60;1.30;;;;;;;;;;5072657;28;20055;-59
2022/11/19 06:48:49;;;;;;;2.63;1.50;;;;;;;;;;5069486;28;20149;-59
2022/11/19 06:51:16;;;;;;;1.10;1.00;;;;;;;;;;5068791;28;20100;-59
2022/11/19 06:53:43;;;;;;;1.27;0.80;;;;;;;;;;5069051;28;20471;-59
2022/11/19 06:56:09;;;;;;;1.40;0.80;;;;;;;;;;5070140;28;20471;-59
2022/11/19 06:58:36;;;;;;;0.73;0.70;;;;;;;;;;5074139;28;20103;-59
2022/11/19 07:01:03;;;;;;;1.50;0.97;;;;;;;;;;5074379;28;20024;-59
2022/11/19 07:03:30;;;;;;;1.77;1.10;;;;;;;;;;5074098;28;20082;-59
2022/11/19 07:06:01;;;;;;;2.53;1.33;;;;;;;;;;5074180;28;20104;-59
2022/11/19 07:08:30;;;;;;;1.00;0.80;;;;;;;;;;5087592;28;20044;-59
2022/11/19 07:10:57;;;;;;;2.77;0.90;;;;;;;;;;5088812;28;20467;-60
2022/11/19 07:13:23;;;;;;;1.67;1.17;;;;;;;;;;5088933;28;20031;-59
2022/11/19 07:15:50;;;;;;;1.90;1.20;;;;;;;;;;5088878;28;20036;-59
2022/11/19 07:18:16;;;;;;;1.40;1.10;;;;;;;;;;5089470;28;20030;-59
2022/11/19 07:20:45;;;;;;;1.20;1.00;;;;;;;;;;5094175;28;20050;-59
2022/11/19 07:23:12;;;;;;;2.07;1.37;;;;;;;;;;5093944;28;20084;-59
2022/11/19 07:25:39;;;;;;;1.17;1.03;;;;;;;;;;5087535;28;20024;-58
2022/11/19 07:28:05;;;;;;;1.77;1.00;;;;;;;;;;5074002;28;20403;-59
2022/11/19 07:30:32;;;;;;;2.20;1.43;;;;;;;;;;5072880;28;20035;-59
2022/11/19 07:32:59;;;;;;;2.10;1.37;;;;;;;;;;5068415;28;20028;-59
2022/11/19 07:35:25;;;;;;;1.80;1.17;;;;;;;;;;5068150;28;20032;-59
2022/11/19 07:37:52;;;;;;;1.70;1.13;;;;;;;;;;5068197;28;20028;-59
2022/11/19 07:40:18;;;;;;;1.07;0.83;;;;;;;;;;5068201;28;20028;-59
2022/11/19 07:42:48;;;;;;;2.37;1.40;;;;;;;;;;5072980;28;20020;-59
2022/11/19 07:45:15;;;;;;;1.77;1.47;;;;;;;;;;5088985;28;20103;-59
2022/11/19 07:47:42;;;;;;;7.53;1.43;;;;;;;;;;5093425;28;20028;-59
2022/11/19 07:50:09;;;;;;;3.40;1.40;;;;;;;;;;5093034;28;20352;-59
2022/11/19 07:52:35;;;;;;;2.07;1.07;;;;;;;;;;5092993;28;20399;-59
2022/11/19 07:55:02;;;;;;;0.50;0.50;;;;;;;;;;5087800;28;20543;-59
2022/11/19 07:57:29;;;;;;;13.27;1.33;;;;;;;;;;5088229;28;20356;-59
2022/11/19 07:59:55;;;;;;;3.57;1.67;;;;;;;;;;5087587;28;20378;-59
2022/11/19 08:02:22;;;;;;;2.83;1.63;;;;;;;;;;5082525;28;20051;-59
2022/11/19 08:04:49;;;;;;;1.93;1.43;;;;;;;;;;5072812;28;20028;-59
2022/11/19 08:07:15;;;;;;;2.07;1.33;;;;;;;;;;5073021;28;20032;-59
2022/11/19 08:09:42;;;;;;;1.40;0.90;;;;;;;;;;5073003;28;20050;-59
2022/11/19 08:12:08;;;;;;;2.47;1.43;;;;;;;;;;5073981;28;20372;-59
2022/11/19 08:14:35;;;;;;;3.00;1.40;;;;;;;;;;5072777;28;20481;-59
2022/11/19 08:19:47;;;;;;;1.33;0.98;;;;;;;;;;5067422;28;20111;-59
2022/11/19 08:22:14;;;;;;;3.87;1.97;;;;;;;;;;5084493;28;20050;-60
2022/11/19 08:24:40;;;;;;;2.43;1.60;;;;;;;;;;5077447;28;20028;-59
2022/11/19 08:27:07;;;;;;;1.40;1.13;;;;;;;;;;5078839;28;20028;-59
2022/11/19 08:29:33;;;;;;;14.77;1.20;;;;;;;;;;5087274;28;20039;-59
2022/11/19 08:32:01;;;;;;;1.37;0.83;;;;;;;;;;5092665;28;20031;-59
2022/11/19 08:34:28;;;;;;;0.40;0.40;;;;;;;;;;5092670;28;20032;-59
2022/11/19 08:36:54;;;;;;;0.87;0.70;;;;;;;;;;5072849;28;20025;-59
2022/11/19 08:39:21;;;;;;;1.40;0.90;;;;;;;;;;5067056;28;20036;-60
2022/11/19 08:44:33;;;;;;;3.13;1.27;;;;;;;;;;5067073;28;20446;-59
2022/11/19 08:46:59;;;;;;;1.83;1.37;;;;;;;;;;5067054;28;20036;-59
2022/11/19 08:49:26;;;;;;;1.93;1.43;;;;;;;;;;5072332;28;20105;-59
2022/11/19 08:51:53;;;;;;;2.50;1.27;;;;;;;;;;5072171;28;20124;-59
2022/11/19 08:54:19;;;;;;;0.80;0.57;;;;;;;;;;5082450;28;20371;-59
2022/11/19 08:56:46;;;;;;;5.70;1.37;;;;;;;;;;5092413;28;20040;-59
2022/11/19 08:59:13;;;;;;;0.97;0.73;;;;;;;;;;5092311;28;20360;-59
2022/11/19 09:01:40;;;;;;;1.77;1.07;;;;;;;;;;5086967;28;20043;-59
2022/11/19 09:04:06;;;;;;;0.80;0.70;;;;;;;;;;5086892;28;20021;-60
2022/11/19 09:06:36;;;;;;;1.20;1.00;;;;;;;;;;5087077;28;20039;-60
2022/11/19 09:09:03;;;;;;;4.20;1.50;;;;;;;;;;5086814;28;20077;-59
2022/11/19 09:11:30;;;;;;;5.60;1.80;;;;;;;;;;5091360;28;20016;-59
2022/11/19 09:13:57;;;;;;;1.13;0.87;;;;;;;;;;5071672;28;20059;-59
2022/11/19 09:16:24;;;;;;;4.57;1.47;;;;;;;;;;5072040;28;20107;-59
2022/11/19 09:18:50;;;;;;;0.60;0.57;;;;;;;;;;5072018;28;20033;-59
2022/11/19 09:21:17;;;;;;;1.20;0.93;;;;;;;;;;5073126;28;20037;-59
2022/11/19 09:23:44;;;;;;;1.27;0.80;;;;;;;;;;5066742;28;20102;-59
2022/11/19 09:26:14;;;;;;;2.13;1.57;;;;;;;;;;5066532;28;20468;-59
2022/11/19 09:28:42;;;;;;;1.67;1.10;;;;;;;;;;5066544;28;20519;-59
2022/11/19 09:31:12;;;;;;;3.03;1.63;;;;;;;;;;5074587;28;20036;-59
2022/11/19 09:33:41;;;;;;;4.47;1.53;;;;;;;;;;5091410;28;20043;-59
2022/11/19 09:36:08;;;;;;;2.30;1.60;;;;;;;;;;5091771;28;20105;-59
2022/11/19 09:38:34;;;;;;;5.43;1.77;;;;;;;;;;5092055;28;20043;-60
2022/11/19 09:41:24;;;;;;;3.23;1.63;;;;;;;;;;5092158;28;20020;-59
2022/11/19 09:44:04;;;;;;;3.70;2.03;;;;;;;;;;5078931;28;20028;-59
2022/11/19 09:46:49;;;;;;;1.10;1.00;;;;;;;;;;5086659;28;20732;-59
2022/11/19 09:49:27;;;;;;;1.77;1.38;;;;;;;;;;5083467;28;20037;-59
2022/11/19 09:51:57;;;;;;;3.20;1.10;;;;;;;;;;5066661;28;20036;-59
2022/11/19 09:54:24;;;;;;;0.97;0.87;;;;;;;;;;5067539;28;20069;-58
2022/11/19 09:56:53;;;;;;;1.33;0.90;;;;;;;;;;5071615;28;20033;-59
2022/11/19 09:59:19;;;;;;;1.53;1.13;;;;;;;;;;5071611;28;20020;-59
2022/11/19 10:01:46;;;;;;;1.87;0.90;;;;;;;;;;5077463;28;20063;-58
2022/11/19 10:04:13;;;;;;;1.57;1.23;;;;;;;;;;5071478;28;20021;-59
2022/11/19 10:06:39;;;;;;;1.20;1.00;;;;;;;;;;5070339;28;20020;-59
2022/11/19 10:09:06;;;;;;;1.03;0.90;;;;;;;;;;5066211;28;20046;-59
2022/11/19 10:11:51;;;;;;;2.87;1.77;;;;;;;;;;5066198;28;20380;-59
2022/11/19 10:14:36;;;;;;;4.30;1.48;;;;;;;;;;5069193;28;20024;-58
2022/11/19 10:17:12;;;;;;;4.05;1.50;;;;;;;;;;5071623;28;20033;-59
2022/11/19 10:20:08;;;;;;;2.23;1.33;;;;;;;;;;5082645;28;20020;-59
2022/11/19 10:22:35;;;;;;;2.20;1.27;;;;;;;;;;5095330;28;20041;-59
2022/11/19 10:25:18;;;;;;;4.03;1.23;;;;;;;;;;5095260;28;20150;-59
2022/11/19 10:27:50;;;;;;;0.97;0.73;;;;;;;;;;5095097;28;20024;-59
2022/11/19 10:30:19;;;;;;;3.30;1.37;;;;;;;;;;5090202;28;20528;-58
2022/11/19 10:32:58;;;;;;;4.03;1.23;;;;;;;;;;5089908;28;20054;-58
2022/11/19 10:35:33;;;;;;;1.20;1.10;;;;;;;;;;5089539;28;20036;-59
2022/11/19 10:38:01;;;;;;;2.42;1.35;;;;;;;;;;5089466;28;20494;-58
2022/11/19 10:40:32;;;;;;;1.13;0.87;;;;;;;;;;5082809;28;20387;-59
2022/11/19 10:43:05;;;;;;;5.00;1.60;;;;;;;;;;5074741;28;20112;-58
2022/11/19 10:45:32;;;;;;;1.80;1.27;;;;;;;;;;5074614;28;20021;-59
2022/11/19 10:48:12;;;;;;;2.03;1.43;;;;;;;;;;5074397;28;20075;-59
2022/11/19 10:50:40;;;;;;;1.80;0.93;;;;;;;;;;5074174;28;20096;-59
2022/11/19 10:53:13;;;;;;;3.30;1.63;;;;;;;;;;5068592;28;20028;-58
2022/11/19 10:55:50;;;;;;;1.07;0.83;;;;;;;;;;5069032;28;20091;-58
2022/11/19 10:58:23;;;;;;;11.03;1.40;;;;;;;;;;5069050;28;20541;-59
2022/11/19 11:00:50;;;;;;;1.33;0.70;;;;;;;;;;5081641;28;20035;-59
2022/11/19 11:03:22;;;;;;;2.13;0.93;;;;;;;;;;5094067;28;20524;-59
2022/11/19 11:06:05;;;;;;;1.07;0.83;;;;;;;;;;5094481;28;20020;-58
2022/11/19 11:08:32;;;;;;;1.73;1.10;;;;;;;;;;5094189;28;20028;-58
2022/11/19 11:10:59;;;;;;;8.03;1.50;;;;;;;;;;5094376;28;20028;-58
2022/11/19 11:16:22;;;;;;;2.10;1.23;;;;;;;;;;5088945;28;20088;-59
2022/11/19 11:18:49;;;;;;;1.00;0.57;;;;;;;;;;5088815;28;20016;-59
2022/11/19 11:21:22;;;;;;;1.23;0.93;;;;;;;;;;5074073;28;20032;-58
2022/11/19 11:23:53;;;;;;;2.33;1.30;;;;;;;;;;5070017;28;20021;-58
2022/11/19 11:26:22;;;;;;;3.70;1.60;;;;;;;;;;5073357;28;20023;-58
2022/11/19 11:29:04;;;;;;;1.93;1.27;;;;;;;;;;5073854;28;20460;-58
2022/11/19 11:31:30;;;;;;;1.07;0.97;;;;;;;;;;5073621;28;20021;-59
2022/11/19 11:33:57;;;;;;;1.20;1.10;;;;;;;;;;5073566;28;20025;-59
2022/11/19 11:36:28;;;;;;;0.90;0.70;;;;;;;;;;5070377;28;20036;-58
2022/11/19 11:38:56;;;;;;;2.53;1.40;;;;;;;;;;5068318;28;20024;-60
2022/11/19 11:41:33;;;;;;;0.97;0.80;;;;;;;;;;5077307;28;20396;-59
2022/11/19 11:44:02;;;;;;;5.33;1.10;;;;;;;;;;5088303;28;20028;-59
2022/11/19 11:46:42;;;;;;;1.27;0.80;;;;;;;;;;5091149;28;20024;-59
2022/11/19 11:49:19;;;;;;;0.87;0.77;;;;;;;;;;5093482;28;20509;-58
2022/11/19 11:51:45;;;;;;;0.67;0.63;;;;;;;;;;5093734;28;20020;-58
2022/11/19 11:54:17;;;;;;;1.60;1.13;;;;;;;;;;5093616;28;20099;-58
2022/11/19 11:56:44;;;;;;;0.67;0.50;;;;;;;;;;5093331;28;20043;-59
2022/11/19 11:59:20;;;;;;;1.97;0.93;;;;;;;;;;5088240;28;20062;-58
2022/11/19 12:02:05;;;;;;;2.77;1.13;;;;;;;;;;5067782;28;20482;-59
2022/11/19 12:04:31;;;;;;;;;;;;;;;;;;5068505;28;20025;-58
2022/11/19 12:07:07;;;;;;;2.53;1.83;;;;;;;;;;5067588;28;19905;-58
2022/11/19 12:09:40;;;;;;;1.97;1.60;;;;;;;;;;5072000;28;20054;-58
2022/11/19 12:12:27;;;;;;;2.70;1.60;;;;;;;;;;5073131;28;20044;-58
2022/11/19 12:14:59;;;;;;;1.77;1.17;;;;;;;;;;5072696;28;20352;-58
2022/11/19 12:17:33;;;;;;;6.70;2.67;;;;;;;;;;5072659;28;20535;-59
2022/11/19 12:20:10;;;;;;;1.20;1.03;;;;;;;;;;5090873;28;20374;-59
2022/11/19 12:22:50;;;;;;;2.77;1.17;;;;;;;;;;5087396;28;20032;-58
2022/11/19 12:25:25;;;;;;;0.80;0.77;;;;;;;;;;5087616;28;20095;-58
2022/11/19 12:27:55;;;;;;;2.28;1.45;;;;;;;;;;5087199;28;20049;-58
2022/11/19 12:30:29;;;;;;;5.93;1.30;;;;;;;;;;5088941;28;20591;-58
2022/11/19 12:33:05;;;;;;;1.73;1.07;;;;;;;;;;5092829;28;20020;-58
2022/11/19 12:35:40;;;;;;;1.13;0.83;;;;;;;;;;5092423;28;20090;-58
2022/11/19 12:38:25;;;;;;;2.10;1.57;;;;;;;;;;5089458;28;20047;-58
2022/11/19 12:41:02;;;;;;;0.75;0.75;;;;;;;;;;5072364;28;20025;-58
2022/11/19 12:43:47;;;;;;;1.90;1.10;;;;;;;;;;5069244;28;20029;-58
2022/11/19 12:46:28;;;;;;;2.33;1.52;;;;;;;;;;5067191;28;20078;-58
2022/11/19 12:49:02;;;;;;;3.70;1.10;;;;;;;;;;5067058;28;20391;-58
2022/11/19 12:51:35;;;;;;;1.65;1.35;;;;;;;;;;5066947;28;20032;-58
2022/11/19 12:54:09;;;;;;;2.87;1.77;;;;;;;;;;5070859;28;20048;-58
2022/11/19 13:14:32;;;;;;;1.33;1.03;;;;;;;;;;5079186;27;2094988;-60
2022/11/19 13:17:00;;;;;;;1.10;0.93;;;;;;;;;;5125039;28;20035;-60
2022/11/19 13:19:31;;;;;;;1.13;1.00;;;;;;;;;;5125129;28;20024;-60
2022/11/19 13:22:13;;;;;;;1.73;1.00;;;;;;;;;;5125432;27;20024;-60
2022/11/19 13:24:45;;;;;;;1.20;0.97;;;;;;;;;;5130322;28;20019;-61
2022/11/19 13:27:19;;;;;;;0.80;0.67;;;;;;;;;;5130937;28;20394;-60
2022/11/19 13:29:52;;;;;;;1.25;0.95;;;;;;;;;;5130480;28;20050;-60
2022/11/19 13:32:37;;;;;;;0.93;0.80;;;;;;;;;;5148078;27;20030;-60
2022/11/19 13:35:07;;;;;;;1.63;1.05;;;;;;;;;;5148246;27;20039;-60
2022/11/19 13:37:37;;;;;;;1.07;0.90;;;;;;;;;;5145621;27;20076;-60
2022/11/19 13:40:14;;;;;;;1.17;0.97;;;;;;;;;;5145639;27;20023;-60
2022/11/19 13:45:26;;;;;;;2.95;1.65;;;;;;;;;;5148397;27;20091;-60
2022/11/19 13:47:57;;;;;;;0.70;0.60;;;;;;;;;;5150900;27;20467;-61
2022/11/19 13:50:27;;;;;;;2.10;1.40;;;;;;;;;;5134487;27;20120;-61
2022/11/19 13:53:02;;;;;;;1.60;1.03;;;;;;;;;;5129880;28;20027;-61
2022/11/19 13:55:29;;;;;;;2.17;1.33;;;;;;;;;;5129808;28;20031;-61
2022/11/19 13:57:56;;;;;;;1.43;1.00;;;;;;;;;;5126039;28;20023;-61
2022/11/19 14:00:27;;;;;;;1.90;1.00;;;;;;;;;;5124618;28;20507;-61
2022/11/19 14:03:03;;;;;;;2.00;1.07;;;;;;;;;;5124503;28;20030;-61
2022/11/19 14:05:36;;;;;;;1.57;0.97;;;;;;;;;;5124451;28;20019;-61
2022/11/19 14:08:16;;;;;;;1.03;0.90;;;;;;;;;;5137180;27;20141;-61
2022/11/19 14:11:00;;;;;;;1.33;1.00;;;;;;;;;;5150374;27;20484;-61
2022/11/19 14:13:36;;;;;;;2.17;1.27;;;;;;;;;;5150272;27;20030;-61
2022/11/19 14:27:25;;;;;;;3.15;1.90;;;;;;;;;;5112795;27;20164;-61
2022/11/19 14:29:57;;;;;;;3.57;2.50;;;;;;;;;;5112983;28;20023;-61
2022/11/19 14:32:31;;;;;;;3.37;2.43;;;;;;;;;;5129322;27;20036;-61
2022/11/19 14:35:00;;;;;;;11.18;2.28;;;;;;;;;;5136194;27;20086;-60
2022/11/19 14:37:32;;;;;;;8.50;1.83;;;;;;;;;;5135632;27;20030;-61
2022/11/19 14:40:01;;;;;;;2.57;1.53;;;;;;;;;;5130854;27;20065;-63
2022/11/19 14:42:28;;;;;;;4.80;2.13;;;;;;;;;;5110599;28;20027;-61
2022/11/19 14:45:03;;;;;;;1.73;1.20;;;;;;;;;;5110090;28;20102;-62
2022/11/19 14:47:33;;;;;;;3.63;1.53;;;;;;;;;;5110111;28;20481;-61
2022/11/19 14:50:00;;;;;;;1.93;1.27;;;;;;;;;;5110528;27;20027;-62
2022/11/19 14:52:30;;;;;;;3.10;1.90;;;;;;;;;;5113625;28;20043;-62
2022/11/19 14:55:05;;;;;;;5.20;1.70;;;;;;;;;;5115255;27;20593;-61
2022/11/19 14:57:31;;;;;;;;;;;;;;;;;;5115532;28;20061;-61
2022/11/19 15:00:00;;;;;;;1.70;1.30;;;;;;;;;;5115084;28;20391;-61
2022/11/19 15:02:30;;;;;;;3.03;1.80;;;;;;;;;;5115024;28;20019;-61
2022/11/19 15:05:12;;;;;;;4.00;1.20;;;;;;;;;;5110615;28;20031;-61
2022/11/19 15:07:41;;;;;;;2.73;1.87;;;;;;;;;;5109658;28;20099;-61
2022/11/19 15:10:14;;;;;;;1.97;1.20;;;;;;;;;;5113394;27;20023;-61
2022/11/19 15:12:43;;;;;;;1.97;1.20;;;;;;;;;;5130109;27;20080;-61
2022/11/19 15:15:19;;;;;;;2.70;1.43;;;;;;;;;;5124995;27;20032;-63
2022/11/19 15:18:08;;;;;;;3.90;1.10;;;;;;;;;;5114552;28;20427;-60
2022/11/19 15:20:39;;;;;;;3.33;1.83;;;;;;;;;;5114567;28;20054;-62
2022/11/19 15:23:10;;;;;;;2.73;1.40;;;;;;;;;;5114352;28;20034;-61
2022/11/19 15:26:06;;;;;;;1.67;1.00;;;;;;;;;;5113521;28;20428;-61
2022/11/19 15:28:51;;;;;;;2.47;1.30;;;;;;;;;;5039872;27;20467;-61
2022/11/19 15:31:37;;;;;;;1.93;1.10;;;;;;;;;;5122493;27;20063;-62
2022/11/19 15:34:16;;;;;;;1.43;1.07;;;;;;;;;;5109051;28;20043;-62
2022/11/19 15:36:48;;;;;;;2.67;1.37;;;;;;;;;;5110887;28;20107;-61
2022/11/19 15:39:18;;;;;;;2.40;1.53;;;;;;;;;;5114329;28;20019;-61
2022/11/19 15:41:59;;;;;;;2.93;1.47;;;;;;;;;;5114312;28;20024;-61
2022/11/19 15:44:31;;;;;;;1.63;1.13;;;;;;;;;;5114208;28;20016;-62
2022/11/19 15:47:00;;;;;;;2.20;1.47;;;;;;;;;;5114924;27;20110;-61
2022/11/19 15:49:28;;;;;;;1.67;1.20;;;;;;;;;;5109680;28;20481;-62
2022/11/19 15:51:58;;;;;;;1.43;1.07;;;;;;;;;;5108808;28;20012;-60
2022/11/19 15:54:29;;;;;;;2.23;1.23;;;;;;;;;;5108688;28;20031;-60
2022/11/19 15:56:58;;;;;;;1.27;1.00;;;;;;;;;;5108501;28;20024;-60
2022/11/19 15:59:26;;;;;;;4.43;1.53;;;;;;;;;;5112256;28;20473;-62
2022/11/19 16:01:58;;;;;;;1.13;0.90;;;;;;;;;;5113777;28;20477;-61